Main page
METAR-TAF:

METAR-TAF

Airports :

Esenboğa International Airport

Ankara Esenboğa, Turkey

latitude: 40-07N, longitude: 032-59E, elevation: 953 m

Current weather observation

The report was made 26 minutes ago, at 19:20 UTC
Wind 6 kt from the East/Northeast, varying between North/Northeast and East
Temperature 22°C
Humidity 41%
Pressure 1019 hPa
Visibility 10 km or more
no clouds below 1500 m and no cumulonimbus

METAR: LTAC 281920Z 06006KT 020V090 CAVOK 22/08 Q1019 NOSIG RMK RWY21L VRB02KT RWY03L 05005KT 030V090 RWY21R 04005KT

Time: 22:46 (19:46 UTC)

Forecast

The report was made 3 hours and 6 minutes ago, at 16:40 UTC
Forecast valid from 28 at 18 UTC to 29 at 18 UTC
Wind 12 kt from the North/Northeast
Visibility 10 km or more
no clouds below 1500 m and no cumulonimbus
Becoming
from 28 at 19 UTC to 28 at 21 UTC
Wind 2 kt from variable directions
Temporary
from 29 at 12 UTC to 29 at 16 UTC
Wind 12 kt from the North/Northeast

TAF: LTAC 281640Z 2818/2918 03012KT CAVOK BECMG 2819/2821 VRB02KT TEMPO 2912/2916 03012KT

Weather observations and forecasts of more than 4000 airports (METAR and TAF reports).

The available stations are represented by yellow and red dots on the map.

Hover mouse over dot to see the name of the station.

Then click to see weather observations and forecasts.

To change the map : click on the green buttons with a black cross to zoom in, on the green button with a dash to zoom out, or on the green arrows for adjacent maps.


METAR-TAF: